createdAt,value
2023-02-02T00:01:32.257Z,99385.91
2023-02-02T00:04:05.578Z,99389.44
2023-02-02T00:06:39.729Z,99388.63
2023-02-02T00:09:14.116Z,99383.44
2023-02-02T00:11:48.756Z,99389.38
2023-02-02T00:14:21.716Z,99381.81
2023-02-02T00:16:55.150Z,99390.13
2023-02-02T00:19:31.511Z,99385.00
2023-02-02T00:22:05.786Z,99390.91
2023-02-02T00:24:38.570Z,99385.75
2023-02-02T00:27:11.374Z,99401.97
2023-02-02T00:29:44.771Z,99398.00
2023-02-02T00:32:17.950Z,99403.53
2023-02-02T00:34:50.736Z,99409.88
2023-02-02T00:37:24.950Z,99396.03
2023-02-02T00:39:57.757Z,99403.56
2023-02-02T00:42:30.654Z,99401.19
2023-02-02T00:45:19.073Z,99400.41
2023-02-02T00:47:51.983Z,99408.31
2023-02-02T00:50:25.143Z,99413.81
2023-02-02T00:53:00.006Z,99420.16
2023-02-02T00:55:32.797Z,99417.38
2023-02-02T00:58:05.585Z,99420.53
2023-02-02T01:00:38.550Z,99422.09
2023-02-02T01:03:13.304Z,99426.50
2023-02-02T01:05:46.116Z,99424.03
2023-02-02T01:08:20.269Z,99416.91
2023-02-02T01:10:53.058Z,99422.44
2023-02-02T01:13:28.716Z,99429.59
2023-02-02T01:16:03.587Z,99430.31
2023-02-02T01:18:36.577Z,99427.56
2023-02-02T01:21:11.770Z,99425.56
2023-02-02T01:23:45.922Z,99424.78
2023-02-02T01:26:19.401Z,99419.25
2023-02-02T01:28:52.203Z,99429.50
2023-02-02T01:31:26.508Z,99430.31
2023-02-02T01:33:59.332Z,99423.59
2023-02-02T01:36:32.131Z,99424.00
2023-02-02T01:39:06.346Z,99414.50
2023-02-02T01:41:41.832Z,99429.13
2023-02-02T01:44:52.259Z,99431.13
2023-02-02T01:47:28.234Z,99412.13
2023-02-02T01:50:01.565Z,99419.66
2023-02-02T01:52:36.464Z,99411.72
2023-02-02T01:55:13.953Z,99409.34
2023-02-02T01:57:50.544Z,99408.16
2023-02-02T02:00:25.453Z,99415.72
2023-02-02T02:03:01.925Z,99408.16
2023-02-02T02:05:37.314Z,99405.41
2023-02-02T02:08:16.331Z,99414.16
2023-02-02T02:10:51.090Z,99408.16
2023-02-02T02:13:46.722Z,99405.78
2023-02-02T02:16:28.778Z,99423.19
2023-02-02T02:19:15.783Z,99419.66
2023-02-02T02:22:17.369Z,99430.41
2023-02-02T02:25:45.686Z,99441.84
2023-02-02T02:28:58.254Z,99440.66
2023-02-02T02:32:00.603Z,99449.41
2023-02-02T02:34:50.009Z,99453.00
2023-02-02T02:37:32.827Z,99449.63
2023-02-02T02:40:12.669Z,99469.88
2023-02-02T02:42:53.120Z,99457.91
2023-02-02T02:45:29.088Z,99458.88
2023-02-02T02:48:04.331Z,99476.56
2023-02-02T02:50:38.003Z,99479.63
2023-02-02T02:53:15.207Z,99471.84
2023-02-02T02:55:53.015Z,99473.56
2023-02-02T02:58:34.538Z,99484.88
2023-02-02T03:01:14.696Z,99487.03
2023-02-02T03:04:01.658Z,99486.75
2023-02-02T03:06:42.173Z,99499.69
2023-02-02T03:09:18.023Z,99484.13
2023-02-02T03:11:50.878Z,99466.88
2023-02-02T03:14:23.864Z,99465.28
2023-02-02T03:16:56.654Z,99463.78
2023-02-02T03:19:30.944Z,99460.41
2023-02-02T03:22:03.754Z,99455.09
2023-02-02T03:24:36.494Z,99464.88
2023-02-02T03:27:09.270Z,99457.84
2023-02-02T03:29:42.082Z,99453.13
2023-02-02T03:32:14.956Z,99452.69
2023-02-02T03:34:49.123Z,99449.44
2023-02-02T03:37:22.154Z,99449.56
2023-02-02T03:39:55.107Z,99438.44
2023-02-02T03:42:28.163Z,99442.56
2023-02-02T03:45:01.013Z,99434.69
2023-02-02T03:47:34.254Z,99443.41
2023-02-02T03:50:10.269Z,99432.75
2023-02-02T03:52:43.008Z,99433.16
2023-02-02T03:55:15.965Z,99427.69
2023-02-02T03:57:48.759Z,99430.09
2023-02-02T04:00:23.229Z,99428.53
2023-02-02T04:02:55.999Z,99428.56
2023-02-02T04:05:30.646Z,99430.88
2023-02-02T04:08:03.465Z,99433.66
2023-02-02T04:10:36.219Z,99438.03
2023-02-02T04:13:09.339Z,99439.63
2023-02-02T04:15:42.358Z,99440.41
2023-02-02T04:18:15.107Z,99436.59
2023-02-02T04:20:49.231Z,99443.31
2023-02-02T04:23:22.195Z,99436.94
2023-02-02T04:25:55.515Z,99437.34
2023-02-02T04:28:28.766Z,99427.88
2023-02-02T04:31:01.621Z,99436.56
2023-02-02T04:33:36.054Z,99434.19
2023-02-02T04:36:11.445Z,99435.34
2023-02-02T04:38:44.368Z,99425.44
2023-02-02T04:41:18.706Z,99434.59
2023-02-02T04:43:51.540Z,99425.50
2023-02-02T04:46:24.340Z,99432.97
2023-02-02T04:48:57.085Z,99424.00
2023-02-02T04:51:31.260Z,99420.34
2023-02-02T04:54:04.121Z,99418.78
2023-02-02T04:56:37.122Z,99424.25
2023-02-02T04:59:10.011Z,99425.09
2023-02-02T05:01:42.985Z,99421.88
2023-02-02T05:04:15.722Z,99425.44
2023-02-02T05:06:49.886Z,99425.47
2023-02-02T05:09:22.601Z,99427.47
2023-02-02T05:11:55.376Z,99422.81
2023-02-02T05:14:28.096Z,99436.66
2023-02-02T05:17:00.929Z,99435.09
2023-02-02T05:19:33.670Z,99438.69
2023-02-02T05:22:07.851Z,99435.53
2023-02-02T05:24:40.596Z,99439.91
2023-02-02T05:27:13.338Z,99433.97
2023-02-02T05:29:48.256Z,99447.03
2023-02-02T05:32:21.040Z,99441.53
2023-02-02T05:34:53.868Z,99443.09
2023-02-02T05:37:28.104Z,99450.22
2023-02-02T05:40:00.885Z,99447.03
2023-02-02T05:42:33.646Z,99459.31
2023-02-02T05:45:07.225Z,99458.97
2023-02-02T05:47:40.030Z,99462.53
2023-02-02T05:50:12.794Z,99472.84
2023-02-02T05:52:48.898Z,99479.91
2023-02-02T05:55:21.966Z,99485.09
2023-02-02T05:57:54.875Z,99493.44
2023-02-02T06:00:27.676Z,99488.69
2023-02-02T06:03:00.547Z,99498.16
2023-02-02T06:05:34.113Z,99503.28
2023-02-02T06:08:08.635Z,99512.66
2023-02-02T06:10:41.870Z,99508.66
2023-02-02T06:13:14.814Z,99520.19
2023-02-02T06:15:47.725Z,99518.47
2023-02-02T06:18:20.804Z,99521.53
2023-02-02T06:20:58.020Z,99524.47
2023-02-02T06:23:32.081Z,99527.88
2023-02-02T06:26:05.217Z,99518.97
2023-02-02T06:28:38.024Z,99525.00
2023-02-02T06:31:12.691Z,99514.66
2023-02-02T06:33:45.652Z,99516.41
2023-02-02T06:36:18.611Z,99528.56
2023-02-02T06:38:54.417Z,99522.41
2023-02-02T06:41:27.291Z,99515.78
2023-02-02T06:43:59.989Z,99508.31
2023-02-02T06:46:32.772Z,99502.44
2023-02-02T06:49:05.619Z,99504.84
2023-02-02T06:51:38.425Z,99496.53
2023-02-02T06:54:12.499Z,99504.88
2023-02-02T06:56:45.254Z,99502.50
2023-02-02T06:59:18.178Z,99508.44
2023-02-02T07:01:51.176Z,99508.44
2023-02-02T07:04:23.904Z,99515.59
2023-02-02T07:06:57.812Z,99513.22
2023-02-02T07:09:33.281Z,99517.59
2023-02-02T07:12:06.856Z,99520.38
2023-02-02T07:14:39.660Z,99517.59
2023-02-02T07:17:13.038Z,99524.69
2023-02-02T07:19:45.975Z,99518.75
2023-02-02T07:22:19.454Z,99508.06
2023-02-02T07:24:54.022Z,99521.53
2023-02-02T07:27:26.823Z,99523.94
2023-02-02T07:29:59.729Z,99522.72
2023-02-02T07:32:32.523Z,99532.66
2023-02-02T07:35:06.245Z,99536.59
2023-02-02T07:37:40.105Z,99525.91
2023-02-02T07:40:15.003Z,99537.00
2023-02-02T07:42:47.848Z,99530.31
2023-02-02T07:45:27.121Z,99531.47
2023-02-02T07:48:01.192Z,99534.69
2023-02-02T07:50:33.958Z,99521.22
2023-02-02T07:53:06.747Z,99540.22
2023-02-02T07:55:40.816Z,99539.03
2023-02-02T07:58:13.628Z,99531.50
2023-02-02T08:00:46.421Z,99537.09
2023-02-02T08:03:19.475Z,99543.41
2023-02-02T08:05:52.216Z,99555.72
2023-02-02T08:08:25.170Z,99552.53
2023-02-02T08:10:59.300Z,99553.34
2023-02-02T08:13:32.115Z,99555.31
2023-02-02T08:16:05.814Z,99557.72
2023-02-02T08:18:39.512Z,99559.66
2023-02-02T08:21:14.081Z,99562.47
2023-02-02T08:23:47.113Z,99558.84
2023-02-02T08:26:23.679Z,99552.94
2023-02-02T08:28:58.728Z,99564.84
2023-02-02T08:31:34.219Z,99571.25
2023-02-02T08:34:07.257Z,99568.88
2023-02-02T08:36:39.990Z,99577.19
2023-02-02T08:39:14.463Z,99562.13
2023-02-02T08:41:48.581Z,99570.06
2023-02-02T08:44:21.433Z,99585.16
2023-02-02T08:46:56.505Z,99578.47
2023-02-02T08:49:29.506Z,99581.63
2023-02-02T08:52:02.439Z,99561.38
2023-02-02T08:54:35.360Z,99577.28
2023-02-02T08:57:09.554Z,99570.13
2023-02-02T08:59:42.309Z,99578.84
2023-02-02T09:02:15.183Z,99581.25
2023-02-02T09:04:48.655Z,99587.19
2023-02-02T09:07:21.399Z,99587.59
2023-02-02T09:09:55.779Z,99582.47
2023-02-02T09:12:29.956Z,99591.22
2023-02-02T09:15:03.355Z,99590.41
2023-02-02T09:17:36.461Z,99590.84
2023-02-02T09:20:09.926Z,99585.28
2023-02-02T09:22:42.644Z,99598.78
2023-02-02T09:25:15.604Z,99597.63
2023-02-02T09:27:49.653Z,99599.63
2023-02-02T09:30:22.751Z,99599.22
2023-02-02T09:32:55.576Z,99585.41
2023-02-02T09:35:28.308Z,99612.34
2023-02-02T09:38:01.142Z,99608.81
2023-02-02T09:40:36.436Z,99606.44
2023-02-02T09:43:25.885Z,99615.19
2023-02-02T09:46:06.947Z,99617.97
2023-02-02T09:48:48.138Z,99627.91
2023-02-02T09:51:25.032Z,99623.13
2023-02-02T09:54:04.755Z,99621.56
2023-02-02T09:56:41.143Z,99633.09
2023-02-02T09:59:23.422Z,99632.31
2023-02-02T10:02:02.357Z,99639.44
2023-02-02T10:04:37.685Z,99641.44
2023-02-02T10:07:14.678Z,99643.44
2023-02-02T10:09:52.042Z,99640.25
2023-02-02T10:12:34.995Z,99647.78
2023-02-02T10:15:17.745Z,99649.41
2023-02-02T10:17:57.163Z,99653.38
2023-02-02T10:20:40.445Z,99659.28
2023-02-02T10:23:22.458Z,99652.94
2023-02-02T10:26:01.662Z,99656.16
2023-02-02T10:28:43.984Z,99652.94
2023-02-02T10:31:30.768Z,99662.06
2023-02-02T10:34:12.375Z,99663.66
2023-02-02T10:36:56.644Z,99666.81
2023-02-02T10:39:41.066Z,99662.88
2023-02-02T10:42:29.008Z,99664.47
2023-02-02T10:45:06.502Z,99670.41
2023-02-02T10:47:40.599Z,99668.44
2023-02-02T10:50:20.245Z,99680.75
2023-02-02T10:52:55.928Z,99664.50
2023-02-02T10:55:34.009Z,99679.56
2023-02-02T10:58:21.168Z,99670.47
2023-02-02T11:00:55.793Z,99665.72
2023-02-02T11:03:32.632Z,99667.28
2023-02-02T11:06:38.092Z,99683.97
2023-02-02T11:09:14.664Z,99676.81
2023-02-02T11:11:50.151Z,99666.91
2023-02-02T11:14:35.125Z,99671.66
2023-02-02T11:17:20.754Z,99676.44
2023-02-02T11:19:56.175Z,99680.38
2023-02-02T11:22:35.007Z,99682.38
2023-02-02T11:25:28.372Z,99683.16
2023-02-02T11:28:02.948Z,99678.41
2023-02-02T11:30:38.800Z,99675.22
2023-02-02T11:33:52.192Z,99674.44
2023-02-02T11:40:55.411Z,99675.66
2023-02-02T11:43:31.637Z,99684.38
2023-02-02T11:46:08.007Z,99667.31
2023-02-02T11:48:48.642Z,99676.44
2023-02-02T11:51:24.901Z,99666.91
2023-02-02T11:54:06.962Z,99668.53
2023-02-02T11:56:40.579Z,99664.16
2023-02-02T11:59:30.755Z,99657.78
2023-02-02T12:02:24.312Z,99654.63
2023-02-02T12:05:33.992Z,99662.59
2023-02-02T12:08:07.355Z,99667.34
2023-02-02T12:10:45.011Z,99665.34
2023-02-02T12:13:28.705Z,99659.41
2023-02-02T12:16:14.619Z,99647.50
2023-02-02T12:19:01.011Z,99646.72
2023-02-02T12:21:44.307Z,99650.66
2023-02-02T12:24:30.304Z,99643.13
2023-02-02T12:27:26.256Z,99642.72
2023-02-02T12:30:11.753Z,99661.38
2023-02-02T12:32:54.872Z,99670.50
2023-02-02T12:35:55.212Z,99677.66
2023-02-02T12:38:43.859Z,99667.72
2023-02-02T12:41:27.585Z,99670.94
2023-02-02T12:44:11.347Z,99666.97
2023-02-02T12:47:01.372Z,99664.19
2023-02-02T12:49:54.090Z,99668.13
2023-02-02T12:52:46.615Z,99669.31
2023-02-02T12:55:27.207Z,99688.75
2023-02-02T12:58:10.171Z,99676.47
2023-02-02T13:01:07.191Z,99686.41
2023-02-02T13:03:58.681Z,99703.09
2023-02-02T13:07:04.943Z,99695.13
2023-02-02T13:09:45.387Z,99703.09
2023-02-02T13:12:19.693Z,99693.94
2023-02-02T13:14:57.508Z,99697.13
2023-02-02T13:17:39.338Z,99703.06
2023-02-02T13:20:21.448Z,99709.03
2023-02-02T13:22:57.784Z,99697.09
2023-02-02T13:25:36.462Z,99703.06
2023-02-02T13:28:18.681Z,99707.03
2023-02-02T13:30:53.448Z,99712.56
2023-02-02T13:33:33.041Z,99718.94
2023-02-02T13:36:15.651Z,99718.91
2023-02-02T13:38:49.364Z,99709.41
2023-02-02T13:41:23.388Z,99718.53
2023-02-02T13:44:02.562Z,99710.59
2023-02-02T13:46:42.237Z,99724.47
2023-02-02T13:49:20.526Z,99731.63
2023-02-02T13:52:04.745Z,99726.06
2023-02-02T13:55:10.731Z,99728.06
2023-02-02T14:00:47.677Z,99734.00
2023-02-02T14:03:39.638Z,99749.06
2023-02-02T14:06:16.936Z,99743.50
2023-02-02T14:08:55.160Z,99739.56
2023-02-02T14:11:32.088Z,99739.97
2023-02-02T14:14:29.073Z,99735.19
2023-02-02T14:17:04.582Z,99740.75
2023-02-02T14:19:55.498Z,99758.25
2023-02-02T14:22:48.302Z,99757.44
2023-02-02T14:25:53.447Z,99761.44
2023-02-02T14:28:44.146Z,99769.38
2023-02-02T14:31:31.608Z,99767.34
2023-02-02T14:34:31.290Z,99770.13
2023-02-02T14:37:44.165Z,99771.72
2023-02-02T14:40:44.354Z,99774.13
2023-02-02T14:43:46.347Z,99776.91
2023-02-02T14:46:34.692Z,99782.84
2023-02-02T14:49:20.442Z,99786.41
2023-02-02T14:51:56.978Z,99789.16
2023-02-02T14:54:36.943Z,99801.47
2023-02-02T14:57:27.318Z,99787.13
2023-02-02T15:00:01.815Z,99792.28
2023-02-02T15:02:37.356Z,99804.97
2023-02-02T15:05:39.037Z,99799.00
2023-02-02T15:08:23.699Z,99805.31
2023-02-02T15:11:22.843Z,99806.88
2023-02-02T15:14:07.053Z,99806.53
2023-02-02T15:16:42.183Z,99809.63
2023-02-02T15:19:25.475Z,99815.59
2023-02-02T15:22:03.637Z,99818.72
2023-02-02T15:24:38.573Z,99821.84
2023-02-02T15:27:17.257Z,99831.38
2023-02-02T15:29:55.899Z,99821.91
2023-02-02T15:32:29.030Z,99825.81
2023-02-02T15:38:35.315Z,99834.47
2023-02-02T15:41:15.360Z,99836.88
2023-02-02T15:44:33.838Z,99843.97
2023-02-02T15:47:31.532Z,99845.53
2023-02-02T15:50:35.808Z,99854.66
2023-02-02T15:53:19.026Z,99859.78
2023-02-02T15:55:52.457Z,99852.69
2023-02-02T15:58:28.716Z,99865.72
2023-02-02T16:01:04.775Z,99863.75
2023-02-02T16:03:50.699Z,99874.09
2023-02-02T16:06:23.687Z,99882.78
2023-02-02T16:08:56.454Z,99889.50
2023-02-02T16:11:29.295Z,99884.72
2023-02-02T16:14:04.825Z,99885.50
2023-02-02T16:16:40.726Z,99885.50
2023-02-02T16:19:19.864Z,99889.09
2023-02-02T16:21:55.470Z,99894.59
2023-02-02T16:24:32.697Z,99902.09
2023-02-02T16:27:10.085Z,99893.38
2023-02-02T16:29:43.574Z,99899.03
2023-02-02T16:32:38.904Z,99908.03
2023-02-02T16:35:32.669Z,99913.66
2023-02-02T16:38:15.859Z,99913.66
2023-02-02T16:40:48.563Z,99917.56
2023-02-02T16:43:28.284Z,99924.25
2023-02-02T16:46:04.452Z,99920.69
2023-02-02T16:48:39.254Z,99923.91
2023-02-02T16:51:28.920Z,99922.75
2023-02-02T16:54:12.450Z,99929.88
2023-02-02T16:56:47.515Z,99928.69
2023-02-02T16:59:25.298Z,99928.25
2023-02-02T17:02:01.913Z,99941.75
2023-02-02T17:04:35.599Z,99948.13
2023-02-02T17:07:13.573Z,99947.31
2023-02-02T17:09:48.611Z,99950.94
2023-02-02T17:12:35.381Z,99944.63
2023-02-02T17:15:28.724Z,99950.59
2023-02-02T17:18:02.623Z,99958.81
2023-02-02T17:20:35.480Z,99967.59
2023-02-02T17:23:10.572Z,99958.47
2023-02-02T17:25:45.064Z,99968.81
2023-02-02T17:28:20.651Z,99969.16
2023-02-02T17:30:59.048Z,99976.38
2023-02-02T17:33:35.168Z,99979.22
2023-02-02T17:36:08.792Z,99985.13
2023-02-02T17:38:43.186Z,99983.03
2023-02-02T17:41:16.240Z,99985.00
2023-02-02T17:43:49.003Z,99985.06
2023-02-02T17:46:21.978Z,99992.59
2023-02-02T17:48:54.986Z,99981.03
2023-02-02T17:51:27.951Z,99985.81
2023-02-02T17:54:02.234Z,99986.97
2023-02-02T17:56:35.262Z,99999.22
2023-02-02T17:59:08.209Z,99993.78
2023-02-02T18:01:42.733Z,100001.31
2023-02-02T18:04:16.477Z,99997.78
2023-02-02T18:06:49.368Z,99996.13
2023-02-02T18:09:23.649Z,99995.34
2023-02-02T18:11:56.402Z,99996.63
2023-02-02T18:14:29.125Z,100004.13
2023-02-02T18:17:01.994Z,100004.56
2023-02-02T18:19:35.110Z,100002.50
2023-02-02T18:22:08.156Z,100010.78
2023-02-02T18:24:42.631Z,100022.75
2023-02-02T18:27:17.135Z,100031.25
2023-02-02T18:29:50.067Z,100029.88
2023-02-02T18:32:23.107Z,100032.69
2023-02-02T18:34:56.532Z,100016.91
2023-02-02T18:37:29.340Z,100023.97
2023-02-02T18:40:04.178Z,100032.72
2023-02-02T18:42:37.599Z,100038.81
2023-02-02T18:45:11.604Z,100036.28
2023-02-02T18:47:44.439Z,100037.41
2023-02-02T18:50:17.549Z,100037.06
2023-02-02T18:52:50.321Z,100028.66
2023-02-02T18:55:24.940Z,100039.41
2023-02-02T18:57:57.911Z,100044.03
2023-02-02T19:00:30.696Z,100048.41
2023-02-02T19:03:03.621Z,100042.47
2023-02-02T19:05:54.388Z,100042.41
2023-02-02T19:08:27.185Z,100050.31
2023-02-02T19:11:08.131Z,100041.59
2023-02-02T19:13:41.330Z,100037.31
2023-02-02T19:16:26.041Z,100034.53
2023-02-02T19:18:59.492Z,100032.00
2023-02-02T19:21:32.685Z,100047.16
2023-02-02T19:24:07.840Z,100039.91
2023-02-02T19:26:45.773Z,100051.13
2023-02-02T19:29:20.975Z,100052.69
2023-02-02T19:31:57.377Z,100049.97
2023-02-02T19:34:30.618Z,100052.63
2023-02-02T19:37:11.379Z,100054.66
2023-02-02T19:39:44.616Z,100063.72
2023-02-02T19:42:18.862Z,100062.19
2023-02-02T19:44:51.713Z,100062.16
2023-02-02T19:47:31.412Z,100061.78
2023-02-02T19:50:16.336Z,100064.06
2023-02-02T19:52:50.188Z,100074.41
2023-02-02T19:55:26.391Z,100071.25
2023-02-02T19:58:02.839Z,100068.03
2023-02-02T20:00:38.869Z,100066.84
2023-02-02T20:03:13.801Z,100066.50
2023-02-02T20:05:48.325Z,100070.94
2023-02-02T20:08:25.442Z,100073.72
2023-02-02T20:11:01.203Z,100068.59
2023-02-02T20:13:43.320Z,100060.94
2023-02-02T20:16:19.226Z,100067.38
2023-02-02T20:18:54.689Z,100064.97
2023-02-02T20:21:35.359Z,100061.75
2023-02-02T20:24:17.726Z,100064.97
2023-02-02T20:26:51.632Z,100072.13
2023-02-02T20:29:28.891Z,100065.41
2023-02-02T20:32:01.761Z,100070.50
2023-02-02T20:34:40.768Z,100076.78
2023-02-02T20:37:22.448Z,100078.41
2023-02-02T20:39:57.835Z,100079.63
2023-02-02T20:42:30.887Z,100090.25
2023-02-02T20:45:06.724Z,100094.38
2023-02-02T20:47:39.676Z,100091.88
2023-02-02T20:50:13.123Z,100095.31
2023-02-02T20:52:46.358Z,100098.91
2023-02-02T20:55:19.186Z,100102.09
2023-02-02T20:57:52.989Z,100103.69
2023-02-02T21:00:27.812Z,100117.09
2023-02-02T21:03:00.811Z,100106.03
2023-02-02T21:05:33.585Z,100110.81
2023-02-02T21:08:07.396Z,100109.59
2023-02-02T21:10:40.201Z,100105.66
2023-02-02T21:13:12.968Z,100108.84
2023-02-02T21:15:47.103Z,100109.19
2023-02-02T21:18:19.869Z,100102.88
2023-02-02T21:20:52.785Z,100116.22
2023-02-02T21:23:25.508Z,100092.47
2023-02-02T21:25:58.270Z,100092.16
2023-02-02T21:28:31.018Z,100114.59
2023-02-02T21:31:05.542Z,100103.16
2023-02-02T21:33:38.700Z,100102.84
2023-02-02T21:36:31.126Z,100104.38
2023-02-02T21:39:13.543Z,100109.94
2023-02-02T21:41:46.797Z,100103.63
2023-02-02T21:44:22.322Z,100096.47
2023-02-02T21:46:56.430Z,100115.00
2023-02-02T21:49:36.872Z,100119.00
2023-02-02T21:52:13.185Z,100103.16
2023-02-02T21:54:46.951Z,100116.19
2023-02-02T21:57:21.680Z,100110.19
2023-02-02T21:59:58.355Z,100104.25
2023-02-02T22:02:41.417Z,100108.66
2023-02-02T22:05:19.299Z,100106.34
2023-02-02T22:07:54.060Z,100101.88
2023-02-02T22:10:37.125Z,100113.03
2023-02-02T22:13:19.015Z,100113.03
2023-02-02T22:15:53.520Z,100102.22
2023-02-02T22:18:30.233Z,100105.38
2023-02-02T22:21:02.965Z,100097.13
2023-02-02T22:23:35.714Z,100101.88
2023-02-02T22:26:20.938Z,100112.47
2023-02-02T22:28:53.745Z,100106.53
2023-02-02T22:31:26.608Z,100110.94
2023-02-02T22:34:00.716Z,100106.09
2023-02-02T22:36:33.515Z,100097.78
2023-02-02T22:39:06.346Z,100095.84
2023-02-02T22:41:39.067Z,100098.13
2023-02-02T22:44:11.815Z,100099.34
2023-02-02T22:46:44.600Z,100095.44
2023-02-02T22:49:18.736Z,100085.81
2023-02-02T22:51:53.889Z,100095.75
2023-02-02T22:54:26.907Z,100100.88
2023-02-02T22:56:59.727Z,100105.19
2023-02-02T22:59:32.526Z,100109.31
2023-02-02T23:02:05.238Z,100120.72
2023-02-02T23:04:39.375Z,100113.13
2023-02-02T23:07:12.235Z,100134.41
2023-02-02T23:09:45.095Z,100121.34
2023-02-02T23:12:17.835Z,100125.44
2023-02-02T23:14:50.561Z,100116.72
2023-02-02T23:17:23.375Z,100123.41
2023-02-02T23:19:57.492Z,100124.16
2023-02-02T23:22:30.610Z,100117.78
2023-02-02T23:25:03.423Z,100118.94
2023-02-02T23:27:36.259Z,100120.88
2023-02-02T23:30:11.096Z,100119.84
2023-02-02T23:32:43.855Z,100115.28
2023-02-02T23:35:18.065Z,100108.44
2023-02-02T23:37:50.826Z,100116.88
2023-02-02T23:40:23.609Z,100110.63
2023-02-02T23:42:56.391Z,100111.28
2023-02-02T23:45:29.164Z,100114.78
2023-02-02T23:48:02.015Z,100111.34
2023-02-02T23:50:38.437Z,100127.44
2023-02-02T23:53:11.965Z,100125.94
2023-02-02T23:55:45.639Z,100125.19
2023-02-02T23:58:19.640Z,100136.97
